Time;durP1;ratioP1;P1;durP2;ratioP2;P2;SDS_P1;SDS_P2;PMS_P1;PMS_P2;Temp;Humidity;BMP_temperature;BMP_pressure;BME280_temperature;BME280_humidity;BME280_pressure;Samples;Min_cycle;Max_cycle;Signal;HPM_P1;HPM_P2
2022/11/06 00:00:05;;;;;;;18.92;12.75;;;8.40;99.90;8.40;99910.00;;;;336223;28;86277;-90
2022/11/06 00:00:17;;;;;;;19.05;12.82;;;8.40;99.90;8.50;99912.00;;;;335752;28;91982;-90
2022/11/06 00:00:29;;;;;;;18.38;12.85;;;8.40;99.90;8.50;99918.00;;;;335114;29;86211;-90
2022/11/06 00:00:41;;;;;;;19.08;13.07;;;8.40;99.90;8.40;99918.00;;;;335052;29;90942;-90
2022/11/06 00:00:53;;;;;;;20.38;12.88;;;8.40;99.90;8.40;99913.00;;;;337740;28;86267;-90
2022/11/06 00:01:22;;;;;;;20.60;13.13;;;8.40;99.90;8.40;99914.00;;;;335968;28;92225;-90
2022/11/06 00:01:34;;;;;;;19.10;12.30;;;8.40;99.90;8.30;99910.00;;;;334906;29;86392;-89
2022/11/06 00:01:46;;;;;;;18.73;11.85;;;8.40;99.90;8.30;99923.00;;;;337527;28;91894;-90
2022/11/06 00:01:58;;;;;;;17.52;11.82;;;8.40;99.90;8.40;99913.00;;;;337767;28;86062;-89
2022/11/06 00:02:10;;;;;;;18.65;12.20;;;8.30;99.90;8.50;99915.00;;;;334931;29;91948;-90
2022/11/06 00:02:29;;;;;;;17.65;12.65;;;8.30;99.90;8.50;99918.00;;;;337723;28;86209;-90
2022/11/06 00:02:40;;;;;;;17.50;12.73;;;8.30;99.90;8.50;99915.00;;;;336339;28;91498;-89
2022/11/06 00:02:56;;;;;;;19.40;12.95;;;8.30;99.90;8.40;99923.00;;;;340284;28;86035;-90
2022/11/06 00:03:08;;;;;;;18.75;12.27;;;8.30;99.90;8.40;99920.00;;;;335105;29;90688;-90
2022/11/06 00:03:20;;;;;;;15.75;11.60;;;8.30;99.90;8.40;99910.00;;;;339165;28;85970;-90
2022/11/06 00:03:32;;;;;;;14.73;11.32;;;8.40;99.90;8.40;99910.00;;;;333699;29;90618;-91
2022/11/06 00:03:44;;;;;;;18.17;11.98;;;8.30;99.90;8.30;99912.00;;;;335229;28;86622;-90
2022/11/06 00:03:57;;;;;;;18.48;11.10;;;8.30;99.90;8.40;99909.00;;;;337587;28;91067;-90
2022/11/06 00:04:09;;;;;;;17.48;11.43;;;8.30;99.90;8.40;99912.00;;;;337794;28;86118;-90
2022/11/06 00:04:21;;;;;;;17.77;11.50;;;8.30;99.90;8.40;99911.00;;;;337282;28;91636;-90
2022/11/06 00:04:33;;;;;;;17.88;11.80;;;8.30;99.90;8.50;99911.00;;;;336556;28;86221;-90
2022/11/06 00:04:44;;;;;;;18.92;11.82;;;8.30;99.90;8.50;99923.00;;;;336175;28;91201;-90
2022/11/06 00:06:46;;;;;;;18.05;12.00;;;8.30;99.90;8.50;99913.00;;;;337544;28;85991;-90
2022/11/06 00:06:48;;;;;;;18.48;12.20;;;8.30;99.90;8.70;99919.00;;;;339691;28;91829;-90
2022/11/06 00:07:00;;;;;;;19.00;11.52;;;8.40;99.90;8.70;99923.00;;;;340255;28;85940;-90
2022/11/06 00:07:12;;;;;;;20.70;12.18;;;8.40;99.90;8.70;99922.00;;;;336067;28;91609;-89
2022/11/06 00:07:24;;;;;;;19.38;12.98;;;8.40;99.90;8.60;99921.00;;;;336347;28;87084;-90
2022/11/06 00:07:36;;;;;;;18.88;13.63;;;8.40;99.90;8.70;99925.00;;;;338565;28;92895;-90
2022/11/06 00:07:48;;;;;;;19.67;13.98;;;8.40;99.90;8.60;99923.00;;;;336335;28;87182;-90
2022/11/06 00:07:59;;;;;;;19.65;14.18;;;8.40;99.90;8.50;99917.00;;;;338728;28;91684;-90
2022/11/06 00:08:11;;;;;;;18.58;13.40;;;8.40;99.90;8.50;99911.00;;;;334907;29;86011;-90
2022/11/06 00:08:39;;;;;;;16.55;12.27;;;8.40;99.90;8.30;99924.00;;;;337373;28;92038;-90
2022/11/06 00:08:51;;;;;;;18.25;11.90;;;8.40;99.90;8.20;99924.00;;;;333516;29;87611;-90
2022/11/06 00:09:06;;;;;;;18.40;11.82;;;8.40;99.90;8.20;99919.00;;;;338469;28;90913;-90
2022/11/06 00:09:19;;;;;;;16.52;11.50;;;8.40;99.90;8.20;99921.00;;;;333709;29;86510;-91
2022/11/06 00:09:31;;;;;;;15.98;11.77;;;8.40;99.90;8.20;99924.00;;;;337241;28;92015;-90
2022/11/06 00:09:43;;;;;;;18.02;12.05;;;8.40;99.90;8.30;99918.00;;;;333668;29;87782;-90
2022/11/06 00:09:55;;;;;;;19.58;12.60;;;8.40;99.90;8.40;99930.00;;;;335615;28;91684;-90
2022/11/06 00:10:08;;;;;;;18.38;11.70;;;8.40;99.90;8.40;99921.00;;;;333402;29;87038;-91
2022/11/06 00:10:20;;;;;;;17.38;11.35;;;8.40;99.90;8.40;99916.00;;;;337116;28;92339;-91
2022/11/06 00:10:32;;;;;;;17.48;11.52;;;8.40;99.90;8.30;99923.00;;;;333661;29;85794;-90
2022/11/06 00:10:43;;;;;;;17.38;11.38;;;8.40;99.90;8.30;99921.00;;;;338714;28;91526;-90
2022/11/06 00:10:55;;;;;;;15.70;10.80;;;8.30;99.90;8.30;99920.00;;;;336034;28;85159;-90
2022/11/06 00:11:12;;;;;;;15.02;11.02;;;8.40;99.90;8.40;99915.00;;;;336112;28;90598;-90
2022/11/06 00:11:24;;;;;;;16.83;11.15;;;8.40;99.90;8.50;99922.00;;;;336173;28;85607;-89
2022/11/06 00:11:38;;;;;;;16.48;10.75;;;8.40;99.90;8.40;99916.00;;;;335947;28;91635;-90
2022/11/06 00:11:49;;;;;;;16.42;10.95;;;8.40;99.90;8.50;99913.00;;;;337586;28;86923;-90
2022/11/06 00:12:01;;;;;;;16.27;11.82;;;8.40;99.90;8.50;99915.00;;;;335971;28;91625;-90
2022/11/06 00:12:13;;;;;;;20.02;12.80;;;8.40;99.90;8.60;99917.00;;;;337505;28;86433;-90
2022/11/06 00:12:25;;;;;;;23.10;13.00;;;8.40;99.90;8.50;99911.00;;;;336026;28;88442;-90
2022/11/06 00:12:37;;;;;;;21.08;12.13;;;8.40;99.90;8.50;99913.00;;;;338935;28;85965;-90
2022/11/06 00:12:49;;;;;;;15.18;11.55;;;8.40;99.90;8.60;99913.00;;;;336024;28;91748;-90
2022/11/06 00:13:00;;;;;;;14.38;11.32;;;8.40;99.90;8.60;99914.00;;;;338899;28;87306;-90
2022/11/06 00:13:12;;;;;;;15.65;11.75;;;8.40;99.90;8.60;99916.00;;;;338665;28;91526;-90
2022/11/06 00:13:24;;;;;;;16.70;11.77;;;8.40;99.90;8.60;99912.00;;;;338547;28;86136;-90
2022/11/06 00:13:36;;;;;;;18.33;12.18;;;8.40;99.90;8.50;99912.00;;;;335850;28;91759;-90
2022/11/06 00:13:48;;;;;;;19.63;12.40;;;8.40;99.90;8.70;99917.00;;;;338916;28;87826;-90
2022/11/06 00:14:00;;;;;;;18.20;11.95;;;8.40;99.90;8.80;99912.00;;;;337114;28;91503;-90
2022/11/06 00:14:12;;;;;;;15.30;11.70;;;8.40;99.90;8.80;99913.00;;;;340238;28;83727;-91
2022/11/06 00:14:24;;;;;;;14.68;11.78;;;8.40;99.90;8.80;99906.00;;;;334550;29;91506;-90
2022/11/06 00:14:36;;;;;;;15.85;12.27;;;8.40;99.90;8.90;99905.00;;;;340235;28;85843;-90
2022/11/06 00:14:48;;;;;;;16.85;11.98;;;8.40;99.90;8.80;99912.00;;;;334631;29;92661;-90
2022/11/06 00:15:00;;;;;;;18.50;12.02;;;8.40;99.90;8.60;99907.00;;;;335038;29;85075;-90
2022/11/06 00:15:12;;;;;;;18.00;11.57;;;8.40;99.90;8.70;99915.00;;;;334663;29;92614;-90
2022/11/06 00:15:24;;;;;;;17.88;11.60;;;8.40;99.90;8.70;99913.00;;;;336226;28;87157;-89
2022/11/06 00:15:35;;;;;;;16.38;11.85;;;8.40;99.90;8.60;99914.00;;;;338564;28;91645;-90
2022/11/06 00:15:47;;;;;;;17.20;11.98;;;8.40;99.90;8.60;99926.00;;;;337650;28;86191;-91
2022/11/06 00:16:07;;;;;;;17.58;11.30;;;8.40;99.90;8.50;99911.00;;;;337223;28;90693;-90
2022/11/06 00:16:19;;;;;;;16.30;11.05;;;8.40;99.90;8.50;99906.00;;;;337417;28;87855;-90
2022/11/06 00:16:31;;;;;;;15.75;11.35;;;8.40;99.90;8.40;99902.00;;;;334513;29;92069;-91
2022/11/06 00:16:44;;;;;;;16.13;11.77;;;8.40;99.90;8.50;99910.00;;;;337343;28;85269;-90
2022/11/06 00:16:56;;;;;;;17.88;11.70;;;8.40;99.90;8.50;99897.00;;;;335788;28;92587;-90
2022/11/06 00:17:08;;;;;;;18.40;11.45;;;8.40;99.90;8.70;99902.00;;;;336322;28;86960;-90
2022/11/06 00:17:20;;;;;;;16.17;10.80;;;8.40;99.90;8.80;99902.00;;;;334745;29;90408;-90
2022/11/06 00:17:32;;;;;;;15.10;10.27;;;8.40;99.90;8.80;99903.00;;;;337510;28;85862;-90
2022/11/06 00:17:43;;;;;;;15.90;10.73;;;8.40;99.90;8.70;99903.00;;;;339955;28;91322;-90
2022/11/06 00:17:55;;;;;;;15.73;10.90;;;8.40;99.90;8.90;99897.00;;;;337527;28;86918;-90
2022/11/06 00:18:07;;;;;;;14.23;10.50;;;8.40;99.90;8.80;99895.00;;;;338648;28;92417;-90
2022/11/06 00:18:19;;;;;;;14.52;10.57;;;8.40;99.90;8.80;99898.00;;;;336073;28;87171;-90
2022/11/06 00:18:32;;;;;;;15.00;10.77;;;8.40;99.90;8.80;99901.00;;;;334699;29;91502;-91
2022/11/06 00:18:44;;;;;;;16.00;11.23;;;8.40;99.90;8.80;99898.00;;;;333721;29;86318;-91
2022/11/06 00:18:55;;;;;;;14.25;10.85;;;8.40;99.90;8.80;99892.00;;;;335924;28;91307;-90
2022/11/06 00:19:08;;;;;;;14.68;10.38;;;8.40;99.90;8.80;99895.00;;;;333654;29;86175;-90
2022/11/06 00:19:19;;;;;;;14.05;10.57;;;8.40;99.90;9.00;99897.00;;;;339779;28;89748;-90
2022/11/06 00:19:31;;;;;;;13.60;10.40;;;8.50;99.90;8.90;99894.00;;;;333526;29;86176;-90
2022/11/06 00:19:43;;;;;;;13.02;10.27;;;8.50;99.90;8.80;99897.00;;;;335914;28;91772;-91
2022/11/06 00:19:55;;;;;;;13.68;10.27;;;8.40;99.90;8.80;99895.00;;;;334939;29;86192;-91
2022/11/06 00:20:07;;;;;;;13.63;10.15;;;8.50;99.90;8.80;99900.00;;;;337352;28;91458;-90
2022/11/06 00:20:19;;;;;;;14.60;10.00;;;8.50;99.90;8.80;99900.00;;;;337490;28;87433;-90
2022/11/06 00:20:31;;;;;;;15.25;10.10;;;8.50;99.90;8.70;99899.00;;;;338625;28;91699;-90
2022/11/06 00:20:42;;;;;;;14.43;9.85;;;8.50;99.90;8.70;99893.00;;;;336300;28;86231;-90
2022/11/06 00:20:54;;;;;;;14.43;10.10;;;8.50;99.90;8.80;99900.00;;;;335951;28;89325;-90
2022/11/06 00:21:08;;;;;;;15.25;9.85;;;8.50;99.90;8.80;99899.00;;;;333719;29;85018;-90
2022/11/06 00:21:22;;;;;;;14.65;9.38;;;8.50;99.90;8.90;99896.00;;;;335958;28;91784;-90
2022/11/06 00:21:34;;;;;;;12.40;9.23;;;8.50;99.90;8.60;99905.00;;;;336263;28;83802;-90
2022/11/06 00:21:46;;;;;;;13.40;9.52;;;8.50;99.90;8.40;99902.00;;;;336029;28;92220;-90
2022/11/06 00:21:58;;;;;;;12.75;9.30;;;8.50;99.90;8.40;99901.00;;;;335094;29;84667;-90
2022/11/06 00:22:09;;;;;;;12.27;9.93;;;8.50;99.90;8.40;99905.00;;;;338476;28;92776;-90
2022/11/06 00:22:22;;;;;;;12.85;10.02;;;8.50;99.90;8.40;99902.00;;;;338702;28;84020;-90
2022/11/06 00:22:35;;;;;;;13.85;9.98;;;8.50;99.90;8.50;99902.00;;;;338764;28;88384;-90
2022/11/06 00:22:47;;;;;;;14.55;9.98;;;8.50;99.90;8.60;99901.00;;;;336277;28;87288;-90
2022/11/06 00:22:59;;;;;;;14.43;10.30;;;8.50;99.90;8.80;99900.00;;;;337222;28;91204;-90
2022/11/06 00:23:11;;;;;;;15.40;10.30;;;8.50;99.90;8.90;99900.00;;;;334908;29;86866;-91
2022/11/06 00:23:23;;;;;;;14.32;9.95;;;8.50;99.90;8.70;99910.00;;;;340015;28;92095;-89
2022/11/06 00:23:35;;;;;;;15.25;10.27;;;8.40;99.90;8.60;99909.00;;;;336068;28;85774;-90
2022/11/06 00:23:46;;;;;;;14.57;10.13;;;8.50;99.90;8.60;99911.00;;;;337270;28;92024;-90
2022/11/06 00:24:00;;;;;;;14.38;10.05;;;8.50;99.90;8.50;99906.00;;;;338923;28;85621;-90
2022/11/06 00:24:13;;;;;;;13.48;10.00;;;8.50;99.90;8.50;99911.00;;;;335679;28;91338;-90
2022/11/06 00:24:24;;;;;;;12.77;10.27;;;8.50;99.90;8.40;99905.00;;;;337461;28;87628;-90
2022/11/06 00:24:36;;;;;;;12.85;10.25;;;8.40;99.90;8.40;99907.00;;;;335985;28;92288;-90
2022/11/06 00:24:48;;;;;;;12.95;10.27;;;8.40;99.90;8.40;99901.00;;;;337602;28;84823;-90
2022/11/06 00:25:00;;;;;;;14.48;9.98;;;8.40;99.90;8.40;99912.00;;;;334660;29;91895;-90
2022/11/06 00:25:12;;;;;;;16.80;10.75;;;8.40;99.90;8.50;99901.00;;;;338933;28;86287;-90
2022/11/06 00:25:23;;;;;;;14.30;10.52;;;8.40;99.90;8.60;99918.00;;;;338448;28;90405;-91
2022/11/06 00:25:39;;;;;;;14.05;10.63;;;8.40;99.90;8.50;99912.00;;;;340187;28;86930;-90
2022/11/06 00:25:55;;;;;;;13.80;10.90;;;8.40;99.90;8.50;99904.00;;;;337232;28;92419;-90
2022/11/06 00:26:08;;;;;;;12.60;10.43;;;8.40;99.90;8.50;99910.00;;;;337667;28;86624;-91
2022/11/06 00:26:23;;;;;;;12.95;10.30;;;8.40;99.90;8.60;99905.00;;;;335875;28;93227;-90
2022/11/06 00:26:35;;;;;;;14.90;10.23;;;8.40;99.90;8.60;99912.00;;;;337477;28;87504;-91
2022/11/06 00:26:47;;;;;;;15.63;9.93;;;8.40;99.90;8.60;99906.00;;;;335966;28;90857;-90
2022/11/06 00:27:05;;;;;;;16.00;9.13;;;8.40;99.90;8.40;99904.00;;;;340170;28;87841;-89
2022/11/06 00:27:17;;;;;;;14.95;8.70;;;8.40;99.90;8.40;99907.00;;;;334735;29;91694;-91
2022/11/06 00:27:28;;;;;;;11.95;8.75;;;8.40;99.90;8.40;99904.00;;;;337615;28;83860;-90
2022/11/06 00:27:42;;;;;;;13.13;9.30;;;8.40;99.90;8.60;99900.00;;;;333405;29;91913;-90
2022/11/06 00:27:53;;;;;;;14.93;10.35;;;8.40;99.90;8.80;99898.00;;;;337418;28;84559;-90
2022/11/06 00:28:06;;;;;;;14.50;10.00;;;8.40;99.90;8.80;99896.00;;;;332206;29;90832;-90
2022/11/06 00:28:18;;;;;;;13.27;9.77;;;8.40;99.90;8.70;99897.00;;;;334902;29;86239;-89
2022/11/06 00:28:30;;;;;;;17.73;11.10;;;8.40;99.90;8.70;99903.00;;;;335954;28;93027;-90
2022/11/06 00:28:42;;;;;;;18.63;11.95;;;8.40;99.90;8.80;99902.00;;;;336377;28;84728;-90
2022/11/06 00:28:54;;;;;;;18.50;12.82;;;8.40;99.90;8.70;99903.00;;;;336992;28;91703;-90
2022/11/06 00:29:06;;;;;;;18.90;13.32;;;8.40;99.90;8.60;99904.00;;;;338767;28;86088;-90
2022/11/06 00:29:17;;;;;;;18.08;13.77;;;8.40;99.90;8.60;99897.00;;;;334795;29;90581;-89
2022/11/06 00:29:29;;;;;;;15.77;12.38;;;8.40;99.90;8.60;99898.00;;;;336243;28;83321;-90
2022/11/06 00:29:41;;;;;;;13.95;11.70;;;8.40;99.90;8.40;99888.00;;;;335962;28;91717;-90
2022/11/06 00:29:53;;;;;;;14.32;11.85;;;8.40;99.90;8.50;99892.00;;;;336207;28;87354;-90
2022/11/06 00:30:06;;;;;;;16.08;12.10;;;8.40;99.90;8.50;99895.00;;;;335981;28;91898;-90
2022/11/06 00:30:19;;;;;;;17.92;11.70;;;8.40;99.90;8.50;99889.00;;;;337516;28;86230;-90
2022/11/06 00:30:31;;;;;;;18.17;11.95;;;8.40;99.90;8.60;99895.00;;;;337145;28;92889;-90
2022/11/06 00:30:43;;;;;;;16.88;11.75;;;8.30;99.90;8.60;99899.00;;;;338687;28;87487;-89
2022/11/06 00:31:06;;;;;;;14.27;11.68;;;8.40;99.90;8.50;99891.00;;;;338491;28;90668;-90
2022/11/06 00:31:43;;;;;;;19.02;12.50;;;8.40;99.90;8.30;99896.00;;;;337519;28;85988;-90
2022/11/06 00:31:55;;;;;;;17.10;12.20;;;8.40;99.90;8.50;99906.00;;;;331897;29;91898;-91
2022/11/06 00:32:07;;;;;;;17.00;12.85;;;8.40;99.90;8.60;99903.00;;;;332102;29;87190;-90
2022/11/06 00:32:19;;;;;;;18.55;13.23;;;8.40;99.90;8.70;99895.00;;;;334472;29;91492;-90
2022/11/06 00:32:30;;;;;;;19.52;13.80;;;8.40;99.90;8.80;99896.00;;;;338881;28;87240;-90
2022/11/06 00:32:42;;;;;;;19.50;13.48;;;8.40;99.90;8.70;99900.00;;;;337224;28;91753;-90
2022/11/06 00:32:54;;;;;;;18.10;12.40;;;8.40;99.90;8.60;99899.00;;;;334834;29;86659;-90
2022/11/06 00:33:06;;;;;;;18.83;12.13;;;8.40;99.90;8.50;99891.00;;;;335918;28;93002;-90
2022/11/06 00:33:18;;;;;;;19.17;11.98;;;8.40;99.90;8.60;99894.00;;;;336269;28;87362;-90
2022/11/06 00:33:30;;;;;;;18.88;12.20;;;8.40;99.90;8.50;99895.00;;;;334665;29;91871;-90
2022/11/06 00:33:42;;;;;;;19.35;12.32;;;8.40;99.90;8.50;99899.00;;;;336175;28;86549;-90
2022/11/06 00:33:56;;;;;;;18.70;12.25;;;8.40;99.90;8.50;99894.00;;;;337230;28;90209;-90
2022/11/06 00:34:09;;;;;;;17.05;11.02;;;8.40;99.90;8.40;99886.00;;;;334819;29;86229;-90
2022/11/06 00:34:21;;;;;;;14.80;10.70;;;8.40;99.90;8.60;99892.00;;;;335969;28;91191;-90
2022/11/06 00:34:33;;;;;;;16.33;11.10;;;8.40;99.90;8.70;99894.00;;;;336205;28;87773;-90
2022/11/06 00:34:45;;;;;;;18.08;11.05;;;8.40;99.90;8.70;99888.00;;;;334886;29;89172;-90
2022/11/06 00:34:57;;;;;;;18.35;10.75;;;8.40;99.90;8.80;99885.00;;;;336075;28;87605;-90
2022/11/06 00:35:09;;;;;;;17.55;10.43;;;8.40;99.90;8.70;99889.00;;;;337172;28;92865;-91
2022/11/06 00:35:21;;;;;;;14.82;10.15;;;8.40;99.90;8.90;99892.00;;;;337562;28;86914;-89
2022/11/06 00:35:32;;;;;;;13.82;10.02;;;8.40;99.90;8.90;99893.00;;;;338470;28;90758;-89
2022/11/06 00:35:44;;;;;;;14.02;9.88;;;8.40;99.90;8.80;99880.00;;;;338955;28;85681;-90
2022/11/06 00:35:56;;;;;;;14.52;9.88;;;8.40;99.90;8.90;99887.00;;;;338560;28;90593;-90
2022/11/06 00:36:14;;;;;;;14.68;9.95;;;8.40;99.90;8.80;99884.00;;;;337640;28;82457;-89
2022/11/06 00:36:29;;;;;;;13.54;10.64;;;8.50;99.90;8.60;99888.00;;;;337237;28;92409;-90
2022/11/06 00:36:41;;;;;;;15.45;11.43;;;8.50;99.90;8.50;99882.00;;;;335038;29;84248;-90
2022/11/06 00:36:55;;;;;;;16.08;11.02;;;8.40;99.90;8.40;99888.00;;;;335785;28;92129;-89
2022/11/06 00:37:07;;;;;;;15.80;10.60;;;8.40;99.90;8.40;99890.00;;;;337371;28;87416;-89
2022/11/06 00:37:19;;;;;;;15.43;11.23;;;8.40;99.90;8.70;99886.00;;;;333295;29;93181;-90
2022/11/06 00:37:30;;;;;;;14.40;10.80;;;8.40;99.90;8.50;99882.00;;;;338740;28;85432;-90
2022/11/06 00:37:42;;;;;;;14.40;10.32;;;8.40;99.90;8.60;99887.00;;;;334471;29;91291;-90
2022/11/06 00:37:55;;;;;;;14.93;10.40;;;8.40;99.90;8.60;99892.00;;;;337567;28;85837;-89
2022/11/06 00:38:06;;;;;;;15.05;10.38;;;8.40;99.90;8.60;99890.00;;;;336011;28;91629;-90
2022/11/06 00:38:18;;;;;;;13.52;10.02;;;8.40;99.90;8.50;99885.00;;;;337391;28;87114;-89
2022/11/06 00:38:30;;;;;;;14.32;9.75;;;8.40;99.90;8.40;99888.00;;;;337435;28;90636;-89
2022/11/06 00:38:42;;;;;;;13.90;9.80;;;8.50;99.90;8.30;99882.00;;;;336212;28;88018;-90
2022/11/06 00:38:54;;;;;;;14.45;10.10;;;8.40;99.90;8.20;99884.00;;;;337079;28;91302;-89
2022/11/06 00:39:06;;;;;;;14.80;9.95;;;8.40;99.90;8.10;99880.00;;;;336336;28;83488;-89
2022/11/06 00:39:18;;;;;;;15.13;9.95;;;8.40;99.90;8.10;99888.00;;;;333353;29;92940;-90
2022/11/06 00:39:29;;;;;;;15.27;10.15;;;8.40;99.90;8.10;99884.00;;;;336303;28;83712;-90
2022/11/06 00:39:41;;;;;;;13.60;9.88;;;8.40;99.90;8.10;99881.00;;;;334677;29;92039;-90
2022/11/06 00:39:53;;;;;;;13.40;9.82;;;8.40;99.90;8.00;99890.00;;;;334822;29;87169;-90
2022/11/06 00:40:06;;;;;;;14.20;9.90;;;8.30;99.90;8.00;99887.00;;;;336029;28;89819;-89
2022/11/06 00:40:17;;;;;;;14.75;9.75;;;8.40;99.90;8.10;99890.00;;;;336360;28;83675;-90
2022/11/06 00:40:29;;;;;;;14.60;9.73;;;8.30;99.90;8.30;99887.00;;;;334769;29;92024;-89
2022/11/06 00:40:41;;;;;;;13.98;9.90;;;8.30;99.90;8.30;99888.00;;;;335042;29;84475;-90
2022/11/06 00:40:53;;;;;;;14.60;10.73;;;8.30;99.90;8.30;99894.00;;;;335675;28;90802;-89
2022/11/06 00:41:11;;;;;;;14.40;10.65;;;8.30;99.90;8.30;99884.00;;;;336303;28;84573;-90
2022/11/06 00:41:23;;;;;;;14.75;9.52;;;8.30;99.90;8.30;99886.00;;;;335870;28;93123;-89
2022/11/06 00:41:35;;;;;;;15.63;10.18;;;8.30;99.90;8.30;99893.00;;;;337493;28;87027;-90
2022/11/06 00:41:47;;;;;;;14.02;10.02;;;8.30;99.90;8.30;99876.00;;;;337126;28;92595;-89
2022/11/06 00:41:59;;;;;;;12.95;9.98;;;8.30;99.90;8.30;99887.00;;;;334890;29;85897;-89
2022/11/06 00:42:10;;;;;;;14.30;9.82;;;8.20;99.90;8.30;99893.00;;;;337270;28;91579;-89
2022/11/06 00:42:22;;;;;;;15.48;10.38;;;8.20;99.90;8.40;99894.00;;;;338794;28;87296;-90
2022/11/06 00:42:34;;;;;;;17.42;10.63;;;8.20;99.90;8.60;99893.00;;;;336034;28;92283;-90
2022/11/06 00:42:46;;;;;;;15.98;10.15;;;8.20;99.90;8.40;99888.00;;;;337618;28;86898;-90
2022/11/06 00:42:58;;;;;;;13.90;9.50;;;8.30;99.90;8.40;99891.00;;;;337247;28;88467;-89
2022/11/06 00:43:09;;;;;;;14.88;10.15;;;8.20;99.90;8.30;99888.00;;;;337410;28;85993;-89
2022/11/06 00:43:21;;;;;;;15.45;10.60;;;8.20;99.90;8.40;99892.00;;;;333377;29;93170;-89
2022/11/06 00:43:34;;;;;;;15.95;11.00;;;8.20;99.90;8.50;99888.00;;;;337497;28;86674;-90
2022/11/06 00:43:52;;;;;;;18.33;10.98;;;8.20;99.90;8.30;99890.00;;;;333302;29;92521;-89
2022/11/06 00:44:03;;;;;;;19.63;11.73;;;8.20;99.90;8.40;99891.00;;;;337396;28;87616;-90
2022/11/06 00:44:15;;;;;;;17.75;11.52;;;8.30;99.90;8.40;99885.00;;;;334361;29;91601;-90
2022/11/06 00:44:27;;;;;;;17.83;11.65;;;8.30;99.90;8.30;99895.00;;;;337448;28;85022;-90
2022/11/06 00:44:39;;;;;;;16.33;11.63;;;8.30;99.90;8.30;99885.00;;;;335925;28;90424;-89
2022/11/06 00:44:51;;;;;;;16.15;11.65;;;8.30;99.90;8.30;99886.00;;;;336380;28;87547;-90
2022/11/06 00:45:03;;;;;;;16.42;11.18;;;8.20;99.90;8.20;99890.00;;;;338997;28;91482;-90
2022/11/06 00:45:15;;;;;;;16.17;10.85;;;8.20;99.90;8.20;99896.00;;;;335298;29;87207;-90
2022/11/06 00:45:26;;;;;;;18.17;10.70;;;8.20;99.90;8.20;99896.00;;;;334980;29;91858;-89
2022/11/06 00:45:38;;;;;;;18.77;11.80;;;8.20;99.90;8.10;99895.00;;;;336753;28;87098;-89
2022/11/06 00:45:50;;;;;;;15.75;11.48;;;8.20;99.90;8.20;99895.00;;;;339031;28;90780;-89
2022/11/06 00:46:03;;;;;;;14.95;11.18;;;8.20;99.90;8.40;99887.00;;;;336696;28;85921;-89
2022/11/06 00:46:15;;;;;;;14.57;10.38;;;8.20;99.90;8.40;99891.00;;;;338913;28;90876;-90
2022/11/06 00:46:27;;;;;;;15.95;10.82;;;8.20;99.90;8.40;99889.00;;;;338023;28;86665;-89
2022/11/06 00:46:39;;;;;;;17.52;11.43;;;8.20;99.90;8.30;99889.00;;;;337873;28;90991;-90
2022/11/06 00:46:50;;;;;;;17.92;11.86;;;8.20;99.90;8.20;99888.00;;;;337970;28;85898;-89
2022/11/06 00:47:02;;;;;;;17.67;11.95;;;8.20;99.90;8.20;99880.00;;;;337341;28;89811;-90
2022/11/06 00:47:14;;;;;;;17.38;11.70;;;8.20;99.90;8.20;99885.00;;;;332866;29;87331;-90
2022/11/06 00:47:26;;;;;;;17.88;11.38;;;8.20;99.90;8.10;99893.00;;;;336416;28;89155;-89
2022/11/06 00:47:38;;;;;;;19.98;11.82;;;8.20;99.90;8.20;99890.00;;;;335200;29;86209;-89
2022/11/06 00:47:50;;;;;;;20.65;12.02;;;8.20;99.90;8.20;99888.00;;;;339017;28;88308;-90
2022/11/06 00:48:02;;;;;;;18.30;12.57;;;8.20;99.90;8.10;99895.00;;;;333982;29;87411;-89
2022/11/06 00:48:14;;;;;;;19.02;13.07;;;8.20;99.90;8.10;99887.00;;;;337326;28;90549;-89
2022/11/06 00:48:26;;;;;;;18.98;12.45;;;8.10;99.90;8.10;99893.00;;;;333974;29;84539;-89
2022/11/06 00:48:39;;;;;;;18.30;11.63;;;8.10;99.90;8.20;99894.00;;;;336436;28;91893;-90
2022/11/06 00:48:52;;;;;;;17.67;11.27;;;8.20;99.90;8.20;99888.00;;;;339015;28;86218;-89
2022/11/06 00:49:04;;;;;;;15.93;10.75;;;8.20;99.90;8.30;99891.00;;;;340326;28;91047;-89
2022/11/06 00:49:15;;;;;;;14.88;11.25;;;8.20;99.90;8.20;99894.00;;;;339330;28;87489;-89
2022/11/06 00:49:27;;;;;;;14.35;11.15;;;8.10;99.90;8.10;99896.00;;;;336214;28;92289;-90
2022/11/06 00:49:39;;;;;;;15.35;11.18;;;8.10;99.90;8.10;99888.00;;;;339246;28;86284;-89
2022/11/06 00:49:51;;;;;;;14.70;10.65;;;8.10;99.90;8.20;99890.00;;;;336310;28;90710;-89
2022/11/06 00:50:03;;;;;;;15.57;10.45;;;8.10;99.90;8.20;99889.00;;;;336564;28;85630;-89
2022/11/06 00:50:16;;;;;;;16.50;11.20;;;8.10;99.90;8.20;99884.00;;;;336378;28;91723;-89
2022/11/06 00:50:28;;;;;;;16.23;11.90;;;8.10;99.90;8.20;99887.00;;;;339198;28;87303;-89
2022/11/06 00:50:39;;;;;;;19.48;12.88;;;8.10;99.90;8.20;99890.00;;;;339137;28;90554;-88
2022/11/06 00:50:51;;;;;;;23.48;14.30;;;8.10;99.90;8.20;99889.00;;;;337692;28;86270;-89
2022/11/06 00:51:12;;;;;;;25.63;15.60;;;8.10;99.90;8.10;99899.00;;;;334444;29;91792;-89
2022/11/06 00:51:29;;;;;;;31.10;18.23;;;8.10;99.90;8.10;99886.00;;;;339181;28;83288;-92
2022/11/06 00:51:41;;;;;;;34.15;20.25;;;8.10;99.90;8.20;99884.00;;;;334771;29;93686;-92
2022/11/06 00:51:53;;;;;;;39.40;21.58;;;8.10;99.90;8.30;99884.00;;;;338885;28;87921;-89
2022/11/06 00:52:05;;;;;;;40.65;22.10;;;8.10;99.90;8.30;99891.00;;;;334813;29;91861;-89
2022/11/06 00:52:17;;;;;;;36.40;21.23;;;8.10;99.90;8.40;99884.00;;;;340451;28;87163;-89
2022/11/06 00:52:29;;;;;;;33.25;19.35;;;8.10;99.90;8.30;99898.00;;;;336225;28;91691;-89
2022/11/06 00:52:41;;;;;;;32.63;19.73;;;8.10;99.90;8.20;99894.00;;;;338943;28;86227;-89
2022/11/06 00:52:54;;;;;;;32.97;21.20;;;8.00;99.90;8.30;99891.00;;;;338716;28;91690;-90
2022/11/06 00:53:05;;;;;;;34.63;22.35;;;8.00;99.90;8.20;99882.00;;;;337698;28;86146;-89
2022/11/06 00:53:17;;;;;;;37.95;23.33;;;8.00;99.90;8.20;99885.00;;;;338842;28;90949;-91
2022/11/06 00:53:29;;;;;;;39.08;22.13;;;8.00;99.90;8.20;99883.00;;;;337822;28;87204;-90
2022/11/06 00:53:41;;;;;;;40.45;23.23;;;8.00;99.90;8.20;99890.00;;;;335733;28;92971;-89
2022/11/06 00:53:59;;;;;;;38.70;23.17;;;8.00;99.90;8.20;99889.00;;;;336565;28;87596;-90
2022/11/06 00:54:11;;;;;;;38.03;23.10;;;8.00;99.90;8.20;99888.00;;;;335911;28;90013;-91
2022/11/06 00:54:23;;;;;;;35.50;22.88;;;8.00;99.90;8.30;99887.00;;;;335041;29;84640;-90
2022/11/06 00:54:35;;;;;;;33.70;21.90;;;8.00;99.90;8.50;99880.00;;;;334771;29;90692;-90
2022/11/06 00:54:47;;;;;;;32.17;20.45;;;8.10;99.90;8.50;99883.00;;;;336301;28;84675;-90
2022/11/06 00:54:58;;;;;;;27.27;18.45;;;8.10;99.90;8.40;99884.00;;;;335900;28;91865;-90
2022/11/06 00:55:10;;;;;;;26.02;16.70;;;8.10;99.90;8.50;99879.00;;;;336257;28;86336;-90
2022/11/06 00:55:22;;;;;;;28.33;16.63;;;8.10;99.90;8.40;99874.00;;;;335901;28;91872;-89
2022/11/06 00:55:34;;;;;;;27.13;16.50;;;8.10;99.90;8.40;99879.00;;;;334959;29;85918;-90
2022/11/06 00:55:46;;;;;;;25.52;16.92;;;8.10;99.90;8.20;99880.00;;;;335904;28;93067;-90
2022/11/06 00:56:15;;;;;;;27.73;17.38;;;8.10;99.90;8.00;99881.00;;;;334901;29;86927;-90
2022/11/06 00:56:27;;;;;;;28.67;16.30;;;8.10;99.90;8.00;99878.00;;;;333465;29;90809;-90
2022/11/06 00:56:40;;;;;;;26.70;16.45;;;8.10;99.90;8.00;99869.00;;;;337658;28;85649;-90
2022/11/06 00:56:51;;;;;;;28.88;17.08;;;8.10;99.90;8.00;99870.00;;;;335830;28;91789;-90
2022/11/06 00:57:03;;;;;;;27.63;17.25;;;8.00;99.90;8.00;99870.00;;;;338931;28;84501;-90
2022/11/06 00:57:15;;;;;;;25.67;16.63;;;8.00;99.90;8.00;99876.00;;;;334679;29;90728;-90
2022/11/06 00:57:27;;;;;;;26.48;16.33;;;8.00;99.90;8.10;99877.00;;;;337494;28;87359;-90
2022/11/06 00:57:38;;;;;;;26.20;15.68;;;8.00;99.90;8.20;99881.00;;;;335822;28;89480;-90
2022/11/06 00:57:51;;;;;;;24.45;15.65;;;8.00;99.90;8.20;99877.00;;;;336281;28;87541;-90
2022/11/06 00:58:02;;;;;;;23.13;15.40;;;8.00;99.90;8.10;99867.00;;;;337059;28;92938;-91
2022/11/06 00:58:14;;;;;;;22.45;14.55;;;8.00;99.90;8.00;99872.00;;;;336142;28;87009;-89
2022/11/06 00:58:27;;;;;;;20.65;13.68;;;8.00;99.90;8.00;99875.00;;;;335962;28;91867;-90